Time;durP1;ratioP1;P1;durP2;ratioP2;P2;SDS_P1;SDS_P2;PMS_P1;PMS_P2;Temp;Humidity;BMP_temperature;BMP_pressure;BME280_temperature;BME280_humidity;BME280_pressure;Samples;Min_cycle;Max_cycle;Signal;HPM_P1;HPM_P2
2023/03/29 00:00:34;;;;;;;6.72;3.25;;;6.20;99.90;;;;;;5093854;28;20058;-79
2023/03/29 00:03:02;;;;;;;8.82;3.50;;;6.20;99.90;;;;;;5094443;28;20044;-79
2023/03/29 00:05:27;;;;;;;8.63;3.33;;;6.10;99.90;;;;;;5094734;28;20044;-79
2023/03/29 00:07:53;;;;;;;10.27;3.97;;;6.10;99.90;;;;;;5093150;28;20047;-79
2023/03/29 00:10:21;;;;;;;6.90;3.23;;;6.10;99.90;;;;;;5093491;28;20052;-79
2023/03/29 00:12:47;;;;;;;8.38;3.35;;;6.10;99.90;;;;;;5092932;28;20051;-80
2023/03/29 00:15:13;;;;;;;7.70;3.50;;;6.10;99.90;;;;;;5075808;28;20065;-79
2023/03/29 00:17:39;;;;;;;7.45;3.17;;;6.10;99.90;;;;;;5094774;28;20068;-81
2023/03/29 00:20:08;;;;;;;6.53;3.53;;;6.10;99.90;;;;;;5094687;28;20052;-79
2023/03/29 00:22:36;;;;;;;6.93;2.80;;;6.20;99.90;;;;;;5093419;28;20126;-79
2023/03/29 00:25:02;;;;;;;7.00;3.28;;;6.20;99.90;;;;;;5093995;28;20079;-79
2023/03/29 00:27:28;;;;;;;9.77;3.67;;;6.20;99.90;;;;;;5093162;28;20074;-79
2023/03/29 00:29:53;;;;;;;5.90;3.20;;;6.20;99.90;;;;;;5093924;28;20563;-79
2023/03/29 00:32:19;;;;;;;7.10;3.30;;;6.10;99.90;;;;;;5092886;28;20123;-80
2023/03/29 00:34:45;;;;;;;6.50;3.03;;;6.20;99.90;;;;;;5093789;28;20047;-80
2023/03/29 00:37:13;;;;;;;5.50;2.87;;;6.10;99.90;;;;;;5092899;28;20149;-80
2023/03/29 00:39:40;;;;;;;6.47;3.13;;;6.20;99.90;;;;;;5094054;28;20127;-80
2023/03/29 00:42:13;;;;;;;8.55;3.25;;;6.10;99.90;;;;;;5093756;28;20044;-80
2023/03/29 00:44:58;;;;;;;6.82;3.20;;;6.10;99.90;;;;;;5092987;28;20498;-80
2023/03/29 00:47:38;;;;;;;7.68;3.25;;;6.10;99.90;;;;;;5093194;28;20131;-79
2023/03/29 00:50:07;;;;;;;8.32;2.72;;;6.10;99.90;;;;;;5075728;28;20052;-80
2023/03/29 00:52:34;;;;;;;5.97;2.80;;;6.10;99.90;;;;;;5093625;28;20571;-79
2023/03/29 00:55:09;;;;;;;7.05;3.03;;;6.10;99.90;;;;;;5092530;28;20215;-79
2023/03/29 00:57:38;;;;;;;6.85;3.17;;;6.10;99.90;;;;;;5093458;28;20391;-79
2023/03/29 01:00:08;;;;;;;7.82;2.70;;;6.10;99.90;;;;;;5075496;28;20119;-80
2023/03/29 01:02:38;;;;;;;10.27;2.97;;;6.10;99.90;;;;;;5076378;28;20135;-80
2023/03/29 01:05:09;;;;;;;6.70;2.80;;;6.10;99.90;;;;;;5075888;28;20052;-80
2023/03/29 01:07:42;;;;;;;7.22;2.80;;;6.10;99.90;;;;;;5075491;28;20553;-80
2023/03/29 01:10:16;;;;;;;8.30;2.90;;;6.10;99.90;;;;;;5075381;28;20052;-79
2023/03/29 01:12:50;;;;;;;5.68;2.90;;;6.10;99.90;;;;;;5092339;28;20087;-79
2023/03/29 01:15:21;;;;;;;5.63;2.65;;;6.00;99.90;;;;;;5092601;28;20047;-79
2023/03/29 01:17:49;;;;;;;6.03;3.20;;;6.10;99.90;;;;;;5091957;28;20052;-81
2023/03/29 01:20:18;;;;;;;5.88;2.55;;;6.10;99.90;;;;;;5092397;28;20051;-80
2023/03/29 01:22:57;;;;;;;6.20;2.90;;;6.10;99.90;;;;;;5093323;28;20066;-80
2023/03/29 01:25:38;;;;;;;6.15;2.50;;;6.10;99.90;;;;;;5091886;28;20106;-79
2023/03/29 01:28:35;;;;;;;6.75;2.60;;;6.10;99.90;;;;;;5092948;28;20044;-80
2023/03/29 01:31:05;;;;;;;7.32;3.05;;;6.10;99.90;;;;;;5090701;28;20071;-80
2023/03/29 01:33:37;;;;;;;7.45;2.53;;;6.10;99.90;;;;;;5092086;28;20130;-80
2023/03/29 01:36:16;;;;;;;5.40;2.60;;;6.10;99.90;;;;;;5091983;28;20105;-80
2023/03/29 01:39:03;;;;;;;7.95;2.90;;;6.00;99.90;;;;;;5075540;28;20094;-80
2023/03/29 01:41:38;;;;;;;7.35;2.88;;;6.10;99.90;;;;;;5092210;28;20105;-80
2023/03/29 01:44:26;;;;;;;11.00;2.90;;;6.10;99.90;;;;;;5091864;28;20068;-80
2023/03/29 01:46:59;;;;;;;8.82;2.85;;;6.10;99.90;;;;;;5092960;28;20052;-80
2023/03/29 01:49:36;;;;;;;6.03;3.28;;;6.10;99.90;;;;;;5092074;28;20127;-80
2023/03/29 01:52:18;;;;;;;6.75;2.75;;;6.10;99.90;;;;;;5091722;28;20454;-80
2023/03/29 01:54:53;;;;;;;9.07;3.38;;;6.10;99.90;;;;;;5091989;28;20051;-80
2023/03/29 01:57:23;;;;;;;6.65;3.30;;;6.10;99.90;;;;;;5092349;28;20059;-80
2023/03/29 01:59:52;;;;;;;6.57;2.90;;;6.10;99.90;;;;;;5093032;28;20095;-80
2023/03/29 02:02:19;;;;;;;8.15;3.70;;;6.10;99.90;;;;;;5091864;28;20055;-80
2023/03/29 02:04:52;;;;;;;7.00;2.90;;;6.10;99.90;;;;;;5093052;28;20381;-80
2023/03/29 02:07:22;;;;;;;7.88;3.47;;;6.10;99.90;;;;;;5092886;28;20048;-80
2023/03/29 02:09:51;;;;;;;6.20;3.00;;;6.10;99.90;;;;;;5091976;28;20056;-80
2023/03/29 02:12:18;;;;;;;8.40;2.80;;;6.10;99.90;;;;;;5091351;28;20108;-80
2023/03/29 02:14:44;;;;;;;5.80;3.17;;;6.10;99.90;;;;;;5092546;28;20561;-80
2023/03/29 02:17:17;;;;;;;7.57;2.90;;;6.10;99.90;;;;;;5092071;28;20056;-80
2023/03/29 02:19:49;;;;;;;7.15;3.58;;;6.10;99.90;;;;;;5091684;28;20468;-80
2023/03/29 02:22:23;;;;;;;7.25;2.50;;;6.10;99.90;;;;;;5091472;28;20476;-80
2023/03/29 02:24:51;;;;;;;6.35;3.08;;;6.10;99.90;;;;;;5091847;28;20052;-80
2023/03/29 02:27:17;;;;;;;6.53;3.10;;;6.10;99.90;;;;;;5092444;28;20399;-80
2023/03/29 02:29:45;;;;;;;8.73;3.73;;;6.10;99.90;;;;;;5091614;28;20044;-80
2023/03/29 02:32:30;;;;;;;6.85;3.13;;;6.10;99.90;;;;;;5074351;28;20475;-80
2023/03/29 02:35:20;;;;;;;6.97;3.63;;;6.20;99.90;;;;;;5092479;28;20484;-82
2023/03/29 02:37:50;;;;;;;6.60;3.65;;;6.20;99.90;;;;;;5094346;28;20052;-80
2023/03/29 02:40:17;;;;;;;7.10;3.38;;;6.20;99.90;;;;;;5096202;28;20641;-80
2023/03/29 02:42:44;;;;;;;8.15;3.38;;;6.20;99.90;;;;;;5096321;28;20036;-80
2023/03/29 02:45:13;;;;;;;9.70;3.50;;;6.20;99.90;;;;;;5094722;28;20052;-80
2023/03/29 02:47:44;;;;;;;9.88;3.83;;;6.20;99.90;;;;;;5096239;28;20052;-80
2023/03/29 02:50:10;;;;;;;6.68;3.38;;;6.20;99.90;;;;;;5095118;28;20066;-80
2023/03/29 02:52:42;;;;;;;7.35;3.80;;;6.20;99.90;;;;;;5096141;28;20052;-80
2023/03/29 02:55:13;;;;;;;7.90;4.18;;;6.10;99.90;;;;;;5094884;28;20088;-81
2023/03/29 02:57:42;;;;;;;8.27;4.30;;;6.10;99.90;;;;;;5096335;28;20121;-80
2023/03/29 03:00:09;;;;;;;9.02;3.65;;;6.20;99.90;;;;;;5094507;28;20510;-80
2023/03/29 03:02:39;;;;;;;7.07;4.22;;;6.10;99.90;;;;;;5094675;28;20498;-80
2023/03/29 03:05:05;;;;;;;7.28;3.67;;;6.10;99.90;;;;;;5095612;28;20050;-80
2023/03/29 03:07:32;;;;;;;8.55;3.85;;;6.20;99.90;;;;;;5094823;28;20040;-80
2023/03/29 03:09:58;;;;;;;8.30;4.07;;;6.20;99.90;;;;;;5094946;28;20123;-80
2023/03/29 03:12:24;;;;;;;6.43;4.00;;;6.20;99.90;;;;;;5094375;28;20527;-81
2023/03/29 03:14:49;;;;;;;7.73;4.07;;;6.20;99.90;;;;;;5094739;28;20047;-81
2023/03/29 03:17:17;;;;;;;8.57;4.27;;;6.20;99.90;;;;;;5077238;28;20415;-81
2023/03/29 03:19:43;;;;;;;9.00;4.40;;;6.20;99.90;;;;;;5094482;28;20531;-80
2023/03/29 03:22:08;;;;;;;6.50;3.73;;;6.20;99.90;;;;;;5095346;28;20132;-81
2023/03/29 03:24:34;;;;;;;7.53;4.10;;;6.20;99.90;;;;;;5095722;28;20055;-81
2023/03/29 03:27:00;;;;;;;8.80;4.53;;;6.20;99.90;;;;;;5095606;28;20044;-80
2023/03/29 03:29:27;;;;;;;7.47;3.67;;;6.20;99.90;;;;;;5094169;28;20047;-81
2023/03/29 03:31:53;;;;;;;7.47;4.10;;;6.20;99.90;;;;;;5094512;28;20392;-80
2023/03/29 03:34:19;;;;;;;8.98;4.10;;;6.20;99.90;;;;;;5095137;28;20079;-80
2023/03/29 03:36:46;;;;;;;8.23;4.63;;;6.20;99.90;;;;;;5077325;28;20102;-80
2023/03/29 03:39:12;;;;;;;9.70;4.45;;;6.20;99.90;;;;;;5094990;28;20332;-81
2023/03/29 03:41:38;;;;;;;7.05;4.10;;;6.20;99.90;;;;;;5094220;28;20084;-80
2023/03/29 03:44:04;;;;;;;8.95;4.13;;;6.20;99.90;;;;;;5093907;28;20083;-81
2023/03/29 03:46:30;;;;;;;7.80;4.23;;;6.20;99.90;;;;;;5095170;28;20063;-80
2023/03/29 03:48:56;;;;;;;9.50;4.33;;;6.20;99.90;;;;;;5094101;28;20102;-80
2023/03/29 03:51:22;;;;;;;7.88;4.22;;;6.20;99.90;;;;;;5093635;28;20044;-80
2023/03/29 03:53:48;;;;;;;8.20;4.30;;;6.30;99.90;;;;;;5093940;28;20092;-81
2023/03/29 03:56:14;;;;;;;10.87;4.50;;;6.30;99.90;;;;;;5076889;28;20089;-81
2023/03/29 03:58:40;;;;;;;7.83;3.90;;;6.30;99.90;;;;;;5093877;28;20051;-81
2023/03/29 04:01:07;;;;;;;8.52;4.40;;;6.30;99.90;;;;;;5076912;28;20056;-81
2023/03/29 04:03:33;;;;;;;8.05;4.68;;;6.30;99.90;;;;;;5093881;28;20071;-80
2023/03/29 04:06:00;;;;;;;10.57;4.72;;;6.30;99.90;;;;;;5093728;28;20475;-80
2023/03/29 04:08:26;;;;;;;10.57;4.60;;;6.30;99.90;;;;;;5076730;28;20054;-80
2023/03/29 04:10:54;;;;;;;6.47;4.00;;;6.30;99.90;;;;;;5093793;28;20048;-80
2023/03/29 04:13:21;;;;;;;8.52;4.38;;;6.30;99.90;;;;;;5093082;28;20040;-81
2023/03/29 04:15:48;;;;;;;9.95;4.20;;;6.30;99.90;;;;;;5093563;28;20048;-81
2023/03/29 04:18:15;;;;;;;8.45;4.20;;;6.30;99.90;;;;;;5092448;28;20056;-80
2023/03/29 04:20:42;;;;;;;10.32;4.63;;;6.40;99.90;;;;;;5093222;28;20091;-80
2023/03/29 04:23:07;;;;;;;10.63;4.90;;;6.40;99.90;;;;;;5094424;28;20071;-80
2023/03/29 04:25:34;;;;;;;9.47;4.40;;;6.40;99.90;;;;;;5094296;28;20083;-81
2023/03/29 04:28:00;;;;;;;8.57;4.20;;;6.40;99.90;;;;;;5094483;28;20044;-81
2023/03/29 04:30:25;;;;;;;10.57;4.67;;;6.30;99.90;;;;;;5092911;28;20044;-81
2023/03/29 04:32:51;;;;;;;7.33;4.53;;;6.30;99.90;;;;;;5094187;28;20101;-81
2023/03/29 04:35:17;;;;;;;9.50;4.87;;;6.30;99.90;;;;;;5092776;28;20093;-81
2023/03/29 04:37:43;;;;;;;12.40;4.60;;;6.40;99.90;;;;;;5092887;28;20081;-81
2023/03/29 04:40:13;;;;;;;10.80;4.80;;;6.40;99.90;;;;;;5075901;28;20044;-81
2023/03/29 04:42:43;;;;;;;10.18;4.38;;;6.40;99.90;;;;;;5094096;28;20040;-81
2023/03/29 04:45:10;;;;;;;8.48;4.88;;;6.40;99.90;;;;;;5076100;28;20048;-80
2023/03/29 04:47:38;;;;;;;7.13;4.30;;;6.40;99.90;;;;;;5092782;28;20553;-81
2023/03/29 04:50:07;;;;;;;14.10;4.90;;;6.40;99.90;;;;;;5093752;28;20535;-80
2023/03/29 04:52:32;;;;;;;7.10;3.97;;;6.40;99.90;;;;;;5075731;28;20055;-80
2023/03/29 04:54:59;;;;;;;10.17;4.93;;;6.40;99.90;;;;;;5094051;28;20047;-81
2023/03/29 04:57:25;;;;;;;10.82;4.88;;;6.40;99.90;;;;;;5092485;28;20144;-80
2023/03/29 04:59:51;;;;;;;8.83;4.87;;;6.30;99.90;;;;;;5092226;28;20130;-80
2023/03/29 05:02:16;;;;;;;11.80;5.80;;;6.40;99.90;;;;;;5092340;28;20043;-80
2023/03/29 05:04:42;;;;;;;9.87;4.93;;;6.30;99.90;;;;;;5075470;28;20135;-80
2023/03/29 05:07:08;;;;;;;8.63;4.60;;;6.40;99.90;;;;;;5075756;28;20082;-80
2023/03/29 05:09:34;;;;;;;9.67;5.33;;;6.40;99.90;;;;;;5092292;28;20098;-80
2023/03/29 05:12:00;;;;;;;9.37;5.67;;;6.40;99.90;;;;;;5093412;28;20047;-80
2023/03/29 05:14:26;;;;;;;10.32;5.35;;;6.40;99.90;;;;;;5091937;28;20048;-80
2023/03/29 05:16:51;;;;;;;9.87;6.03;;;6.40;99.90;;;;;;5092119;28;20067;-81
2023/03/29 05:19:20;;;;;;;9.77;6.37;;;6.40;99.90;;;;;;5092075;28;20055;-81
2023/03/29 05:21:47;;;;;;;10.13;5.95;;;6.40;99.90;;;;;;5092358;28;20090;-80
2023/03/29 05:24:12;;;;;;;9.77;5.90;;;6.40;99.90;;;;;;5092429;28;20055;-80
2023/03/29 05:26:38;;;;;;;10.23;6.20;;;6.40;99.90;;;;;;5091736;28;20044;-80
2023/03/29 05:29:06;;;;;;;12.77;6.33;;;6.40;99.90;;;;;;5093457;28;20080;-80
2023/03/29 05:31:31;;;;;;;10.63;6.00;;;6.40;99.90;;;;;;5092906;28;20321;-81
2023/03/29 05:33:57;;;;;;;11.60;6.53;;;6.40;99.90;;;;;;5091877;28;20129;-80
2023/03/29 05:36:23;;;;;;;14.80;6.87;;;6.40;99.90;;;;;;5091745;28;20040;-80
2023/03/29 05:38:49;;;;;;;10.82;6.35;;;6.40;99.90;;;;;;5092141;28;20051;-81
2023/03/29 05:41:16;;;;;;;10.63;6.63;;;6.40;99.90;;;;;;5093280;28;20040;-80
2023/03/29 05:43:42;;;;;;;10.48;6.57;;;6.40;99.90;;;;;;5075054;28;20274;-80
2023/03/29 05:46:08;;;;;;;10.27;6.93;;;6.40;99.90;;;;;;5092140;28;20056;-80
2023/03/29 05:48:35;;;;;;;10.33;7.17;;;6.40;99.90;;;;;;5092816;28;20138;-80
2023/03/29 05:51:02;;;;;;;12.07;7.20;;;6.40;99.90;;;;;;5091820;28;20055;-80
2023/03/29 05:53:27;;;;;;;13.55;7.38;;;6.40;99.90;;;;;;5091463;28;20040;-80
2023/03/29 05:55:54;;;;;;;12.33;7.03;;;6.40;99.90;;;;;;5091738;28;20123;-80
2023/03/29 05:58:20;;;;;;;11.25;7.43;;;6.40;99.90;;;;;;5092922;28;20055;-81
2023/03/29 06:00:50;;;;;;;14.60;7.55;;;6.40;99.90;;;;;;5091949;28;20032;-80
2023/03/29 06:03:18;;;;;;;12.15;7.30;;;6.40;99.90;;;;;;5091765;28;20044;-80
2023/03/29 06:05:53;;;;;;;12.77;7.63;;;6.40;99.90;;;;;;5091682;28;20069;-80
2023/03/29 06:08:19;;;;;;;;;;;6.40;99.90;;;;;;5092332;28;20056;-80
2023/03/29 06:10:45;;;;;;;14.40;7.40;;;6.40;99.90;;;;;;5108533;28;19927;-80
2023/03/29 06:13:11;;;;;;;12.73;7.67;;;6.40;99.90;;;;;;5077216;28;20416;-80
2023/03/29 06:15:37;;;;;;;11.55;8.10;;;6.40;99.90;;;;;;5095593;28;20484;-80
2023/03/29 06:18:03;;;;;;;14.03;7.80;;;6.50;99.90;;;;;;5095607;28;20059;-80
2023/03/29 06:20:29;;;;;;;12.02;7.80;;;6.50;99.90;;;;;;5095606;28;20044;-81
2023/03/29 06:22:54;;;;;;;12.93;7.43;;;6.50;99.90;;;;;;5096824;28;20200;-81
2023/03/29 06:25:20;;;;;;;13.47;7.40;;;6.50;99.90;;;;;;5095262;28;20047;-81
2023/03/29 06:27:46;;;;;;;10.67;7.40;;;6.50;99.90;;;;;;5095453;28;20095;-80
2023/03/29 06:30:14;;;;;;;12.60;7.10;;;6.50;99.90;;;;;;5095756;28;20048;-80
2023/03/29 06:32:43;;;;;;;13.73;7.07;;;6.60;99.90;;;;;;5096214;28;20395;-80
2023/03/29 06:35:10;;;;;;;13.68;7.22;;;6.60;99.90;;;;;;5096402;28;20040;-80
2023/03/29 06:37:39;;;;;;;14.60;8.45;;;6.70;99.90;;;;;;5095173;28;20048;-81
2023/03/29 06:40:05;;;;;;;10.93;6.80;;;6.70;99.90;;;;;;5096290;28;20051;-80
2023/03/29 06:42:31;;;;;;;12.98;7.30;;;6.70;99.90;;;;;;5095026;28;20090;-81
2023/03/29 06:44:58;;;;;;;11.68;7.50;;;6.80;99.90;;;;;;5095232;28;20040;-81
2023/03/29 06:47:29;;;;;;;11.38;7.07;;;6.80;99.90;;;;;;5078256;28;20502;-80
2023/03/29 06:49:55;;;;;;;12.65;7.40;;;6.80;99.90;;;;;;5095296;28;20407;-80
2023/03/29 06:52:21;;;;;;;13.48;7.07;;;6.90;99.90;;;;;;5096148;28;20047;-80
2023/03/29 06:54:47;;;;;;;15.73;7.37;;;6.90;99.90;;;;;;5095931;28;20445;-80
2023/03/29 06:57:13;;;;;;;13.63;7.93;;;6.90;99.90;;;;;;5096042;28;20132;-80
2023/03/29 06:59:38;;;;;;;11.37;6.97;;;6.90;99.90;;;;;;5095675;28;20048;-81
2023/03/29 07:02:04;;;;;;;11.90;7.50;;;6.90;99.90;;;;;;5094743;28;20044;-81
2023/03/29 07:04:31;;;;;;;10.43;6.15;;;7.00;99.90;;;;;;5077974;28;20466;-81
2023/03/29 07:07:04;;;;;;;10.07;6.77;;;6.90;99.90;;;;;;5095920;28;20048;-81
2023/03/29 07:09:32;;;;;;;13.25;6.90;;;7.00;99.90;;;;;;5094826;28;20131;-82
2023/03/29 07:11:58;;;;;;;10.32;6.65;;;7.10;99.90;;;;;;5095721;28;20056;-82
2023/03/29 07:14:27;;;;;;;15.05;7.70;;;7.10;99.90;;;;;;5095784;28;20053;-81
2023/03/29 07:16:57;;;;;;;11.32;7.05;;;7.10;99.90;;;;;;5094056;28;20126;-82
2023/03/29 07:19:26;;;;;;;12.13;7.97;;;7.10;99.90;;;;;;5095807;28;20058;-82
2023/03/29 07:21:53;;;;;;;14.85;8.32;;;7.10;99.90;;;;;;5094116;28;20079;-82
2023/03/29 07:24:20;;;;;;;12.57;7.57;;;7.10;99.90;;;;;;5093457;28;20109;-82
2023/03/29 07:26:47;;;;;;;11.18;6.70;;;7.20;99.90;;;;;;5094302;28;20092;-81
2023/03/29 07:29:14;;;;;;;17.15;8.70;;;7.20;99.90;;;;;;5094601;28;20055;-82
2023/03/29 07:31:40;;;;;;;13.48;7.55;;;7.30;99.90;;;;;;5094158;28;20052;-85
2023/03/29 07:34:09;;;;;;;15.30;7.75;;;7.30;99.90;;;;;;5095472;28;20162;-84
2023/03/29 07:36:38;;;;;;;13.95;7.95;;;7.30;99.90;;;;;;5095088;28;20055;-85
2023/03/29 07:39:05;;;;;;;12.63;8.13;;;7.30;99.90;;;;;;5077439;28;20051;-85
2023/03/29 07:41:31;;;;;;;14.43;8.05;;;7.40;99.90;;;;;;5094371;28;20055;-85
2023/03/29 07:44:00;;;;;;;13.25;8.05;;;7.40;99.90;;;;;;5095504;28;20044;-83
2023/03/29 07:46:28;;;;;;;14.13;7.90;;;7.40;99.90;;;;;;5095332;28;20051;-83
2023/03/29 07:48:55;;;;;;;12.43;7.60;;;7.50;99.90;;;;;;5077070;28;20127;-84
2023/03/29 07:51:21;;;;;;;11.48;7.22;;;7.50;99.90;;;;;;5094065;28;20051;-85
2023/03/29 07:53:48;;;;;;;14.80;8.20;;;7.50;99.90;;;;;;5076452;28;20051;-85
2023/03/29 07:56:14;;;;;;;14.50;7.22;;;7.60;99.90;;;;;;5093666;28;20507;-85
2023/03/29 07:58:40;;;;;;;13.03;7.30;;;7.60;99.90;;;;;;5076958;28;20055;-86
2023/03/29 08:01:07;;;;;;;13.53;7.67;;;7.60;99.90;;;;;;5094085;28;20292;-86
2023/03/29 08:03:33;;;;;;;14.13;7.78;;;7.70;99.90;;;;;;5093927;28;20523;-85
2023/03/29 08:06:03;;;;;;;12.52;6.80;;;7.70;99.90;;;;;;5093931;28;20518;-85
2023/03/29 08:08:28;;;;;;;13.07;7.47;;;7.70;99.90;;;;;;5093875;28;20040;-85
2023/03/29 08:10:54;;;;;;;13.17;7.63;;;7.70;99.90;;;;;;5093620;28;20052;-86
2023/03/29 08:13:20;;;;;;;12.65;7.18;;;7.70;99.90;;;;;;5094865;28;20373;-84
2023/03/29 08:15:47;;;;;;;13.37;7.40;;;7.70;99.90;;;;;;5093167;28;20050;-83
2023/03/29 08:18:13;;;;;;;10.43;7.10;;;7.80;99.90;;;;;;5093340;28;20052;-85
2023/03/29 08:20:40;;;;;;;11.23;6.95;;;7.80;99.90;;;;;;5092932;28;20105;-86
2023/03/29 08:23:06;;;;;;;14.82;8.95;;;7.80;99.90;;;;;;5093692;28;20134;-86
2023/03/29 08:25:32;;;;;;;15.43;7.47;;;7.90;99.90;;;;;;5093562;28;20136;-87
2023/03/29 08:27:57;;;;;;;16.20;8.00;;;7.90;99.90;;;;;;5094052;28;20556;-85
2023/03/29 08:30:23;;;;;;;15.00;8.83;;;8.00;99.90;;;;;;5093365;28;20290;-85
2023/03/29 08:32:50;;;;;;;14.87;8.40;;;8.00;99.90;;;;;;5094030;28;20044;-84
2023/03/29 08:35:15;;;;;;;18.00;9.35;;;8.00;99.90;;;;;;5075649;28;20044;-81
2023/03/29 08:37:41;;;;;;;15.13;9.13;;;8.10;99.90;;;;;;5092171;28;20043;-80
2023/03/29 08:40:16;;;;;;;15.05;9.10;;;8.10;99.90;;;;;;5093380;28;20048;-81
2023/03/29 08:43:05;;;;;;;18.13;8.43;;;8.10;99.90;;;;;;5092471;28;20392;-81
2023/03/29 08:46:00;;;;;;;14.13;8.75;;;8.20;99.90;;;;;;5090045;28;20079;-78
2023/03/29 08:48:43;;;;;;;12.25;8.23;;;8.30;99.90;;;;;;5086603;28;20503;-79
2023/03/29 08:51:26;;;;;;;13.40;8.40;;;8.40;99.90;;;;;;5075783;28;20047;-78
2023/03/29 08:54:00;;;;;;;11.17;7.43;;;8.50;99.90;;;;;;5091129;28;20298;-79
2023/03/29 08:56:29;;;;;;;15.90;8.33;;;8.60;99.90;;;;;;5094037;28;20274;-78
2023/03/29 08:58:56;;;;;;;12.40;7.43;;;8.70;99.90;;;;;;5093629;28;20274;-78
2023/03/29 09:01:26;;;;;;;13.73;8.10;;;8.70;99.90;;;;;;5093794;28;20308;-79
2023/03/29 09:04:21;;;;;;;15.40;8.20;;;8.80;99.90;;;;;;5093511;28;20270;-78
2023/03/29 09:06:47;;;;;;;15.35;7.30;;;8.90;99.90;;;;;;5075759;28;20344;-84
2023/03/29 09:09:21;;;;;;;13.10;7.87;;;9.00;99.90;;;;;;5093589;28;20071;-80
2023/03/29 09:12:10;;;;;;;13.80;8.50;;;9.00;99.90;;;;;;5092428;28;20290;-83
2023/03/29 09:15:19;;;;;;;15.77;7.87;;;9.10;99.90;;;;;;5093334;28;20340;-80
2023/03/29 09:17:45;;;;;;;11.93;7.53;;;9.20;99.90;;;;;;5082094;28;20636;-81
2023/03/29 09:20:55;;;;;;;14.40;8.17;;;9.40;99.90;;;;;;5092097;28;20300;-82
2023/03/29 09:23:48;;;;;;;12.03;7.73;;;9.50;99.90;;;;;;5049001;28;20093;-84
2023/03/29 09:26:40;;;;;;;13.33;7.63;;;9.50;99.90;;;;;;5083532;28;20286;-83
2023/03/29 09:29:34;;;;;;;12.97;8.10;;;9.50;99.90;;;;;;5080857;28;20286;-82
2023/03/29 09:32:05;;;;;;;14.70;8.03;;;9.60;99.90;;;;;;5080820;28;20342;-82
2023/03/29 09:34:42;;;;;;;15.37;8.17;;;9.70;99.90;;;;;;5092859;28;20335;-81
2023/03/29 09:37:14;;;;;;;14.93;7.87;;;9.70;99.90;;;;;;5090153;28;20274;-82
2023/03/29 09:39:40;;;;;;;16.57;8.10;;;9.80;99.90;;;;;;5092678;28;20318;-82
2023/03/29 09:42:08;;;;;;;15.17;9.07;;;9.80;99.90;;;;;;5073701;28;20368;-82
2023/03/29 09:44:44;;;;;;;11.80;8.80;;;9.90;99.90;;;;;;5092227;28;20051;-81
2023/03/29 09:47:15;;;;;;;14.07;8.13;;;9.90;99.90;;;;;;5091649;28;20689;-83
2023/03/29 09:49:46;;;;;;;13.53;8.23;;;10.00;99.90;;;;;;5092291;28;20343;-79
2023/03/29 09:52:15;;;;;;;12.43;7.70;;;10.00;99.90;;;;;;5092694;28;20334;-84
2023/03/29 09:54:42;;;;;;;25.70;8.40;;;10.00;99.90;;;;;;5091632;28;20286;-77
2023/03/29 09:57:14;;;;;;;17.43;8.97;;;10.00;99.90;;;;;;5091017;28;20630;-81
2023/03/29 09:59:40;;;;;;;19.33;10.07;;;10.00;99.90;;;;;;5090157;28;20270;-82
2023/03/29 10:02:12;;;;;;;19.53;9.27;;;10.00;99.90;;;;;;5092199;28;20335;-82
2023/03/29 10:04:40;;;;;;;14.60;9.00;;;10.10;99.90;;;;;;5089089;28;20093;-81
2023/03/29 10:07:07;;;;;;;16.87;9.53;;;10.10;99.90;;;;;;5074085;28;20766;-82
2023/03/29 10:09:34;;;;;;;17.03;9.53;;;10.20;99.90;;;;;;5091407;28;20626;-83
2023/03/29 10:12:05;;;;;;;16.90;10.30;;;10.30;99.90;;;;;;5092007;28;20359;-83
2023/03/29 10:14:52;;;;;;;17.00;10.33;;;10.40;99.90;;;;;;5091303;28;20789;-82
2023/03/29 10:17:24;;;;;;;17.73;11.17;;;10.50;99.90;;;;;;5089745;28;20286;-80
2023/03/29 10:20:02;;;;;;;21.63;10.90;;;10.60;99.90;;;;;;5091946;28;20282;-82
2023/03/29 10:22:36;;;;;;;17.20;11.30;;;10.70;99.90;;;;;;5091427;28;20266;-82
2023/03/29 10:25:03;;;;;;;22.00;12.30;;;10.80;99.90;;;;;;5090010;28;20282;-82
2023/03/29 10:27:33;;;;;;;19.80;11.77;;;10.80;99.90;;;;;;5092240;28;20321;-80
2023/03/29 10:30:07;;;;;;;18.10;12.47;;;11.00;99.90;;;;;;5088227;28;20278;-83
2023/03/29 10:32:35;;;;;;;22.83;12.33;;;11.10;99.90;;;;;;5092075;28;20333;-82
2023/03/29 10:35:20;;;;;;;19.97;11.83;;;11.20;99.90;;;;;;5091899;28;20646;-84
2023/03/29 10:37:50;;;;;;;22.40;13.10;;;11.30;99.90;;;;;;5087386;28;20271;-84
2023/03/29 10:40:46;;;;;;;22.30;12.80;;;11.40;99.90;;;;;;5096928;28;20052;-82
2023/03/29 10:43:18;;;;;;;;;;;11.50;99.90;;;;;;5072591;28;20294;-82
2023/03/29 10:45:48;;;;;;;19.10;12.50;;;11.60;99.90;;;;;;5072253;28;19920;-82
2023/03/29 10:48:16;;;;;;;22.30;13.80;;;11.60;99.90;;;;;;5071247;28;20332;-82
2023/03/29 10:50:47;;;;;;;19.63;12.87;;;11.70;99.90;;;;;;5072369;28;20290;-80
2023/03/29 10:53:27;;;;;;;23.40;14.70;;;11.70;99.90;;;;;;5087768;28;20367;-87
2023/03/29 10:56:08;;;;;;;22.67;14.57;;;11.80;99.90;;;;;;5087927;28;20433;-84
2023/03/29 10:58:59;;;;;;;21.70;14.60;;;11.80;99.90;;;;;;5073678;28;20291;-87
2023/03/29 11:01:53;;;;;;;21.20;14.47;;;11.70;99.90;;;;;;5092118;28;20298;-84
2023/03/29 11:04:32;;;;;;;18.87;12.80;;;11.70;99.90;;;;;;5057897;28;20789;-86
2023/03/29 11:07:25;;;;;;;26.43;14.77;;;11.70;99.90;;;;;;5075576;28;20322;-85
2023/03/29 11:10:10;;;;;;;23.90;15.27;;;11.70;99.90;;;;;;5058200;28;20299;-87
2023/03/29 11:13:00;;;;;;;21.93;15.10;;;11.70;99.90;;;;;;5074331;28;20302;-85
2023/03/29 11:15:45;;;;;;;22.77;14.63;;;11.70;99.90;;;;;;5075659;28;20282;-77
2023/03/29 11:18:16;;;;;;;23.17;15.18;;;11.80;99.90;;;;;;5075488;28;20307;-75
2023/03/29 11:21:20;;;;;;;23.07;13.40;;;11.80;99.90;;;;;;5075789;28;20084;-84
2023/03/29 11:24:16;;;;;;;19.53;14.77;;;11.80;99.90;;;;;;5075525;28;20662;-84
2023/03/29 11:27:10;;;;;;;20.17;14.60;;;11.90;99.90;;;;;;5074464;28;20295;-82
2023/03/29 11:29:45;;;;;;;20.60;13.97;;;11.90;99.90;;;;;;5074242;28;20299;-82
2023/03/29 11:32:40;;;;;;;19.90;13.88;;;11.90;99.90;;;;;;5075224;28;20294;-84
2023/03/29 11:35:23;;;;;;;24.27;15.30;;;12.00;99.90;;;;;;5105479;28;20052;-83
2023/03/29 11:38:16;;;;;;;19.30;13.80;;;12.10;99.90;;;;;;5095459;28;20281;-85
2023/03/29 11:40:57;;;;;;;21.00;14.77;;;12.10;99.90;;;;;;5063559;28;20778;-81
2023/03/29 11:43:33;;;;;;;19.87;13.90;;;12.20;99.90;;;;;;5095106;28;20282;-78
2023/03/29 11:46:30;;;;;;;17.77;12.50;;;12.20;99.90;;;;;;5094180;28;20278;-85
2023/03/29 11:49:37;;;;;;;20.50;14.40;;;12.30;99.90;;;;;;5094519;28;20282;-81
2023/03/29 11:52:26;;;;;;;20.47;14.07;;;12.30;99.90;;;;;;5093589;28;20722;-84
2023/03/29 11:54:57;;;;;;;20.97;13.50;;;12.30;99.90;;;;;;5095176;28;20341;-83
2023/03/29 11:57:32;;;;;;;21.83;14.90;;;12.40;99.90;;;;;;5093859;28;20735;-83
2023/03/29 12:00:30;;;;;;;20.15;13.85;;;12.50;99.90;;;;;;5094163;28;20297;-83
2023/03/29 12:03:37;;;;;;;21.90;14.73;;;12.50;99.90;;;;;;5092706;28;20097;-84
2023/03/29 12:06:15;;;;;;;18.63;13.50;;;12.60;99.90;;;;;;5074175;28;20309;-88
2023/03/29 12:08:46;;;;;;;19.00;14.23;;;12.70;99.90;;;;;;5094714;28;20808;-76
2023/03/29 12:11:21;;;;;;;19.40;14.67;;;12.80;99.90;;;;;;5093848;28;20286;-84
2023/03/29 12:13:55;;;;;;;17.77;13.52;;;12.80;99.90;;;;;;5094976;28;20385;-79
2023/03/29 12:16:45;;;;;;;20.33;15.10;;;12.80;99.90;;;;;;5093428;28;20100;-81
2023/03/29 12:19:15;;;;;;;22.70;15.27;;;12.70;99.90;;;;;;5094543;28;20281;-79
2023/03/29 12:21:42;;;;;;;22.33;14.63;;;12.60;99.90;;;;;;5093401;28;20282;-81
2023/03/29 12:24:14;;;;;;;17.10;13.33;;;12.60;99.90;;;;;;5093315;28;20305;-81
2023/03/29 12:26:59;;;;;;;19.17;13.87;;;12.60;99.90;;;;;;5094727;28;20278;-81
2023/03/29 12:29:47;;;;;;;20.33;14.93;;;12.70;99.90;;;;;;5094298;28;20313;-81
2023/03/29 12:32:19;;;;;;;19.43;14.63;;;12.60;99.90;;;;;;5094202;28;20294;-82
2023/03/29 12:35:04;;;;;;;20.47;14.63;;;12.70;99.90;;;;;;5093127;28;20781;-80
2023/03/29 12:37:50;;;;;;;17.67;14.30;;;12.60;99.90;;;;;;5093168;28;20313;-80
2023/03/29 12:40:21;;;;;;;17.87;14.70;;;12.60;99.90;;;;;;5092926;28;20059;-81
2023/03/29 12:42:52;;;;;;;18.77;14.43;;;12.70;99.90;;;;;;5094487;28;20270;-80
2023/03/29 12:45:37;;;;;;;16.93;14.53;;;12.70;99.90;;;;;;5093538;28;20285;-80
2023/03/29 12:48:05;;;;;;;19.55;14.77;;;12.70;99.90;;;;;;5094027;28;20377;-81
2023/03/29 12:50:45;;;;;;;19.60;14.33;;;12.70;99.90;;;;;;5093746;28;20088;-82
2023/03/29 12:53:21;;;;;;;17.50;14.37;;;12.70;99.90;;;;;;5092626;28;20393;-81
2023/03/29 12:55:48;;;;;;;;;;;12.70;99.90;;;;;;5094431;28;20282;-80
2023/03/29 12:58:35;;;;;;;18.50;13.70;;;12.70;99.90;;;;;;5075673;28;20018;-82
2023/03/29 13:01:27;;;;;;;17.60;13.70;;;12.70;99.90;;;;;;5092987;28;20294;-81
2023/03/29 13:03:58;;;;;;;18.93;14.13;;;12.80;99.90;;;;;;5093961;28;20281;-81
2023/03/29 13:06:31;;;;;;;19.13;14.47;;;12.80;99.90;;;;;;5092323;28;20293;-81
2023/03/29 13:09:21;;;;;;;20.80;15.20;;;12.90;99.90;;;;;;5093748;28;20282;-76